Time;durP1;ratioP1;P1;durP2;ratioP2;P2;SDS_P1;SDS_P2;PMS_P1;PMS_P2;Temp;Humidity;BMP_temperature;BMP_pressure;BME280_temperature;BME280_humidity;BME280_pressure;Samples;Min_cycle;Max_cycle;Signal;HPM_P1;HPM_P2
2023/06/25 00:02:07;;;;;;;9.75;6.03;;;18.80;99.90;;;;;;6244612;23;20020;-67
2023/06/25 00:04:34;;;;;;;13.93;6.88;;;18.80;99.90;;;;;;6245082;23;20077;-67
2023/06/25 00:07:01;;;;;;;9.63;6.55;;;18.80;99.90;;;;;;6245453;23;20027;-67
2023/06/25 00:09:28;;;;;;;10.85;6.78;;;18.80;99.90;;;;;;6243034;23;20499;-67
2023/06/25 00:11:55;;;;;;;9.77;6.05;;;18.80;99.90;;;;;;6246756;23;20023;-66
2023/06/25 00:14:22;;;;;;;9.82;6.63;;;18.80;99.90;;;;;;6246922;23;20024;-66
2023/06/25 00:16:57;;;;;;;9.13;6.47;;;18.70;99.90;;;;;;6244548;23;20024;-66
2023/06/25 00:19:26;;;;;;;9.30;6.47;;;18.70;99.90;;;;;;6245110;23;20024;-67
2023/06/25 00:21:53;;;;;;;8.43;6.10;;;18.60;99.90;;;;;;6247152;23;20016;-67
2023/06/25 00:24:20;;;;;;;11.45;6.22;;;18.60;99.90;;;;;;6244183;23;20031;-68
2023/06/25 00:26:47;;;;;;;10.13;5.78;;;18.60;99.90;;;;;;6245136;23;20362;-66
2023/06/25 00:29:14;;;;;;;9.27;6.50;;;18.60;99.90;;;;;;6246900;23;20078;-67
2023/06/25 00:31:42;;;;;;;11.27;7.40;;;18.60;99.90;;;;;;6246125;22;20028;-67
2023/06/25 00:34:10;;;;;;;8.45;6.22;;;18.60;99.90;;;;;;6244972;23;20086;-67
2023/06/25 00:36:40;;;;;;;9.13;6.78;;;18.60;99.90;;;;;;6245032;23;20024;-67
2023/06/25 00:39:07;;;;;;;11.80;7.18;;;18.50;99.90;;;;;;6246062;23;20063;-67
2023/06/25 00:41:34;;;;;;;11.45;6.93;;;18.60;99.90;;;;;;6244864;23;20024;-67
2023/06/25 00:44:03;;;;;;;13.00;6.55;;;18.50;99.90;;;;;;6244842;23;20508;-67
2023/06/25 00:46:30;;;;;;;11.52;7.15;;;18.50;99.90;;;;;;6244164;23;20115;-66
2023/06/25 00:49:01;;;;;;;9.65;6.38;;;18.50;99.90;;;;;;6246759;23;20056;-66
2023/06/25 00:51:29;;;;;;;8.40;6.50;;;18.40;99.90;;;;;;6244291;23;20043;-66
2023/06/25 00:53:56;;;;;;;8.70;5.85;;;18.40;99.90;;;;;;6244549;23;20016;-66
2023/06/25 00:56:29;;;;;;;10.45;6.25;;;18.40;99.90;;;;;;6246712;23;20024;-67
2023/06/25 00:59:00;;;;;;;9.10;6.47;;;18.40;99.90;;;;;;6244200;23;20393;-67
2023/06/25 01:01:32;;;;;;;11.35;6.82;;;18.40;99.90;;;;;;6246434;22;20523;-67
2023/06/25 01:04:06;;;;;;;13.85;6.20;;;18.40;99.90;;;;;;6244681;23;20100;-67
2023/06/25 01:06:40;;;;;;;11.35;6.55;;;18.40;99.90;;;;;;6244214;23;20026;-68
2023/06/25 01:09:11;;;;;;;12.02;6.10;;;18.40;99.90;;;;;;6244802;23;20476;-67
2023/06/25 01:11:38;;;;;;;7.85;6.18;;;18.30;99.90;;;;;;6246635;23;20024;-67
2023/06/25 01:14:06;;;;;;;10.43;5.80;;;18.30;99.90;;;;;;6243914;23;20016;-68
2023/06/25 01:16:33;;;;;;;10.38;5.93;;;18.30;99.90;;;;;;6244697;23;20099;-68
2023/06/25 01:19:02;;;;;;;15.45;7.70;;;18.20;99.90;;;;;;6246391;23;20042;-68
2023/06/25 01:21:30;;;;;;;11.57;6.72;;;18.20;99.90;;;;;;6243888;23;20074;-66
2023/06/25 01:23:59;;;;;;;12.73;7.68;;;18.30;99.90;;;;;;6244377;23;20354;-68
2023/06/25 01:26:26;;;;;;;13.02;7.40;;;18.20;99.90;;;;;;6245711;23;20028;-67
2023/06/25 01:28:55;;;;;;;10.45;7.68;;;18.20;99.90;;;;;;6244506;23;20422;-66
2023/06/25 01:31:24;;;;;;;11.77;8.10;;;18.20;99.90;;;;;;6244583;23;20024;-67
2023/06/25 01:33:51;;;;;;;11.68;7.88;;;18.10;99.90;;;;;;6243659;23;20035;-67
2023/06/25 01:36:18;;;;;;;9.40;7.60;;;18.10;99.90;;;;;;6246347;23;20020;-67
2023/06/25 01:38:45;;;;;;;11.60;7.82;;;18.10;99.90;;;;;;6244432;23;20104;-67
2023/06/25 01:41:14;;;;;;;12.88;8.02;;;18.10;99.90;;;;;;6243456;23;20036;-68
2023/06/25 01:43:41;;;;;;;8.98;6.70;;;18.10;99.90;;;;;;6244296;23;20031;-67
2023/06/25 01:46:08;;;;;;;8.95;7.15;;;18.10;99.90;;;;;;6245813;23;20034;-67
2023/06/25 01:48:36;;;;;;;8.95;6.55;;;18.10;99.90;;;;;;6243670;23;20470;-67
2023/06/25 01:51:03;;;;;;;10.70;6.15;;;18.10;99.90;;;;;;6246177;23;20027;-67
2023/06/25 01:53:30;;;;;;;9.18;6.28;;;18.10;99.90;;;;;;6245616;23;20469;-67
2023/06/25 01:55:57;;;;;;;12.20;7.05;;;18.10;99.90;;;;;;6243554;23;20028;-67
2023/06/25 01:58:25;;;;;;;11.88;6.18;;;18.10;99.90;;;;;;6246049;23;20472;-67
2023/06/25 02:00:52;;;;;;;9.82;5.90;;;18.10;99.90;;;;;;6245948;23;20086;-66
2023/06/25 02:03:19;;;;;;;10.98;6.05;;;18.10;99.90;;;;;;6244984;23;20020;-67
2023/06/25 02:05:46;;;;;;;10.90;6.07;;;18.10;99.90;;;;;;6243961;23;20476;-66
2023/06/25 02:08:13;;;;;;;12.82;6.57;;;18.10;99.90;;;;;;6246069;23;20026;-66
2023/06/25 02:10:40;;;;;;;12.05;6.60;;;18.10;99.90;;;;;;6245023;23;20066;-68
2023/06/25 02:13:07;;;;;;;10.55;6.78;;;18.10;99.90;;;;;;6244202;23;20031;-67
2023/06/25 02:15:35;;;;;;;11.10;7.22;;;18.10;99.90;;;;;;6245780;23;20031;-67
2023/06/25 02:18:02;;;;;;;10.65;6.70;;;18.10;99.90;;;;;;6243306;23;20024;-66
2023/06/25 02:20:29;;;;;;;12.55;7.63;;;18.10;99.90;;;;;;6244205;23;20078;-67
2023/06/25 02:22:56;;;;;;;12.00;7.10;;;18.10;99.90;;;;;;6243356;23;20024;-67
2023/06/25 02:25:23;;;;;;;9.68;6.93;;;18.00;99.90;;;;;;6243766;23;20052;-66
2023/06/25 02:27:49;;;;;;;11.43;7.40;;;18.00;99.90;;;;;;6245736;22;20047;-67
2023/06/25 02:30:17;;;;;;;11.90;6.72;;;18.00;99.90;;;;;;6243636;23;20074;-67
2023/06/25 02:32:45;;;;;;;11.75;9.23;;;18.00;99.90;;;;;;6245670;23;20484;-66
2023/06/25 02:35:12;;;;;;;11.98;8.18;;;18.00;99.90;;;;;;6245198;23;20024;-67
2023/06/25 02:37:39;;;;;;;17.52;8.88;;;18.00;99.90;;;;;;6243147;23;20357;-66
2023/06/25 02:40:07;;;;;;;11.02;8.05;;;18.00;99.90;;;;;;6245126;23;20476;-66
2023/06/25 02:42:34;;;;;;;11.68;8.55;;;17.90;99.90;;;;;;6245260;22;20070;-66
2023/06/25 02:45:01;;;;;;;15.13;9.00;;;17.90;99.90;;;;;;6242841;23;20098;-67
2023/06/25 02:47:28;;;;;;;12.35;8.10;;;17.90;99.90;;;;;;6243791;23;20024;-66
2023/06/25 02:49:56;;;;;;;16.85;9.05;;;17.90;99.90;;;;;;6243754;23;20020;-66
2023/06/25 02:52:23;;;;;;;11.65;8.02;;;17.90;99.90;;;;;;6242701;23;20028;-67
2023/06/25 02:54:50;;;;;;;11.25;8.02;;;17.90;99.90;;;;;;6245325;23;20056;-66
2023/06/25 02:57:17;;;;;;;13.50;7.85;;;17.90;99.90;;;;;;6243450;23;20020;-67
2023/06/25 02:59:44;;;;;;;12.00;8.20;;;17.90;99.90;;;;;;6244072;23;20480;-66
2023/06/25 03:02:11;;;;;;;13.30;7.93;;;17.90;99.90;;;;;;6243543;23;20030;-66
2023/06/25 03:04:38;;;;;;;11.75;7.90;;;17.90;99.90;;;;;;6242716;23;20027;-66
2023/06/25 03:07:07;;;;;;;12.73;7.80;;;17.90;99.90;;;;;;6244135;23;20028;-66
2023/06/25 03:09:34;;;;;;;10.90;7.80;;;17.80;99.90;;;;;;6242938;23;20352;-67
2023/06/25 03:12:01;;;;;;;14.43;9.02;;;17.80;99.90;;;;;;6242711;23;20023;-67
2023/06/25 03:14:28;;;;;;;11.18;7.82;;;17.90;99.90;;;;;;6243466;23;20026;-66
2023/06/25 03:16:55;;;;;;;15.35;8.35;;;17.90;99.90;;;;;;6243682;23;20350;-66
2023/06/25 03:19:22;;;;;;;14.25;7.82;;;17.90;99.90;;;;;;6244734;23;20039;-67
2023/06/25 03:21:49;;;;;;;12.07;8.57;;;17.90;99.90;;;;;;6245795;23;20050;-67
2023/06/25 03:24:17;;;;;;;15.23;8.40;;;17.90;99.90;;;;;;6243702;23;20354;-67
2023/06/25 03:26:44;;;;;;;12.43;8.20;;;17.90;99.90;;;;;;6242632;23;20020;-68
2023/06/25 03:29:11;;;;;;;11.57;8.43;;;17.90;99.90;;;;;;6243581;23;20031;-67
2023/06/25 03:31:38;;;;;;;11.93;8.48;;;17.90;99.90;;;;;;6243520;23;20026;-67
2023/06/25 03:34:05;;;;;;;12.13;8.93;;;17.90;99.90;;;;;;6244556;23;20024;-67
2023/06/25 03:36:32;;;;;;;13.68;8.88;;;18.00;99.90;;;;;;6245407;23;20082;-67
2023/06/25 03:39:00;;;;;;;12.45;8.98;;;17.90;99.90;;;;;;6245451;23;20028;-68
2023/06/25 03:41:28;;;;;;;12.20;8.45;;;18.00;99.90;;;;;;6244339;22;20028;-67
2023/06/25 03:43:55;;;;;;;17.23;8.98;;;18.00;99.90;;;;;;6245450;23;20020;-66
2023/06/25 03:46:22;;;;;;;14.63;8.73;;;18.00;99.90;;;;;;6244698;23;20024;-67
2023/06/25 03:48:49;;;;;;;12.88;8.75;;;18.00;99.90;;;;;;6244869;23;20054;-67
2023/06/25 03:51:16;;;;;;;13.57;8.82;;;18.00;99.90;;;;;;6245402;23;20027;-66
2023/06/25 03:53:43;;;;;;;14.05;9.20;;;18.00;99.90;;;;;;6245545;23;20027;-68
2023/06/25 03:56:10;;;;;;;12.38;8.50;;;18.00;99.90;;;;;;6246469;23;20024;-69
2023/06/25 03:58:38;;;;;;;13.38;9.15;;;18.00;99.90;;;;;;6245640;23;20020;-67
2023/06/25 04:01:05;;;;;;;14.13;8.65;;;18.10;99.90;;;;;;6247122;23;20504;-67
2023/06/25 04:03:32;;;;;;;14.38;9.35;;;18.10;99.90;;;;;;6244638;23;20024;-68
2023/06/25 04:05:59;;;;;;;14.93;9.30;;;18.10;99.90;;;;;;6247119;22;20020;-68
2023/06/25 04:08:26;;;;;;;17.05;9.30;;;18.10;99.90;;;;;;6244666;23;20523;-68
2023/06/25 04:10:53;;;;;;;13.80;8.50;;;18.20;99.90;;;;;;6245277;23;20024;-68
2023/06/25 04:13:20;;;;;;;13.38;9.35;;;18.20;99.90;;;;;;6245236;23;20074;-67
2023/06/25 04:15:48;;;;;;;12.73;8.95;;;18.20;99.90;;;;;;6244373;23;20075;-67
2023/06/25 04:18:15;;;;;;;14.05;8.45;;;18.30;99.90;;;;;;6245308;23;20024;-67
2023/06/25 04:20:42;;;;;;;13.85;8.70;;;18.30;99.90;;;;;;6247078;22;20024;-67
2023/06/25 04:23:09;;;;;;;10.35;7.72;;;18.40;99.90;;;;;;6246462;22;20016;-67
2023/06/25 04:25:36;;;;;;;12.15;8.30;;;18.40;99.90;;;;;;6245537;23;20527;-67
2023/06/25 04:28:03;;;;;;;15.07;8.75;;;18.50;99.90;;;;;;6247142;23;20095;-67
2023/06/25 04:30:31;;;;;;;12.43;8.70;;;18.50;99.90;;;;;;6245745;23;20449;-67
2023/06/25 04:32:59;;;;;;;14.13;8.48;;;18.50;99.90;;;;;;6245148;23;20031;-67
2023/06/25 04:35:26;;;;;;;13.25;8.63;;;18.60;99.90;;;;;;6246807;23;20025;-66
2023/06/25 04:37:53;;;;;;;14.35;8.02;;;18.60;99.90;;;;;;6245940;23;20024;-66
2023/06/25 04:40:20;;;;;;;10.65;7.78;;;18.60;99.90;;;;;;6246950;22;20024;-67
2023/06/25 04:42:47;;;;;;;11.57;8.23;;;18.70;99.90;;;;;;6246310;23;20027;-67
2023/06/25 04:45:14;;;;;;;10.30;7.43;;;18.80;99.90;;;;;;6244476;23;20020;-67
2023/06/25 04:47:41;;;;;;;11.48;6.93;;;18.90;99.90;;;;;;6244812;23;20020;-67
2023/06/25 04:50:10;;;;;;;12.27;7.88;;;19.00;99.90;;;;;;6245015;23;20024;-66
2023/06/25 04:52:37;;;;;;;10.88;7.03;;;19.10;99.90;;;;;;6245628;22;20031;-67
2023/06/25 04:55:04;;;;;;;10.90;7.22;;;19.20;99.90;;;;;;6244682;23;20016;-66
2023/06/25 04:57:32;;;;;;;10.50;6.35;;;19.30;99.90;;;;;;6245241;23;20027;-66
2023/06/25 04:59:59;;;;;;;8.55;6.03;;;19.40;99.90;;;;;;6244880;23;20020;-67
2023/06/25 05:02:26;;;;;;;9.55;6.45;;;19.50;99.90;;;;;;6244678;23;20020;-67
2023/06/25 05:04:53;;;;;;;9.60;6.15;;;19.60;99.90;;;;;;6244217;23;20361;-68
2023/06/25 05:07:21;;;;;;;9.70;5.82;;;19.70;99.90;;;;;;6246538;23;20026;-67
2023/06/25 05:09:48;;;;;;;10.27;6.38;;;19.80;99.90;;;;;;6244731;23;20385;-68
2023/06/25 05:12:15;;;;;;;11.65;6.38;;;20.00;99.90;;;;;;6244396;23;20020;-68
2023/06/25 05:14:43;;;;;;;8.25;6.22;;;20.10;99.90;;;;;;6246469;23;20026;-67
2023/06/25 05:17:10;;;;;;;8.30;5.63;;;20.30;99.90;;;;;;6246497;23;20024;-68
2023/06/25 05:19:37;;;;;;;9.23;5.57;;;20.40;99.90;;;;;;6243847;23;20046;-67
2023/06/25 05:22:05;;;;;;;9.05;5.65;;;20.60;99.90;;;;;;6244480;23;20373;-67
2023/06/25 05:24:34;;;;;;;7.80;5.22;;;20.70;99.90;;;;;;6246537;22;20028;-66
2023/06/25 05:27:01;;;;;;;11.82;5.82;;;20.90;99.90;;;;;;6217780;23;20059;-66
2023/06/25 05:29:28;;;;;;;8.90;5.63;;;21.00;99.90;;;;;;6246453;22;20019;-67
2023/06/25 05:31:56;;;;;;;6.95;5.28;;;21.10;99.90;;;;;;6246378;22;20024;-67
2023/06/25 05:34:23;;;;;;;8.85;5.35;;;21.30;99.90;;;;;;6243783;23;20404;-66
2023/06/25 05:36:50;;;;;;;6.63;4.80;;;21.40;99.90;;;;;;6246125;23;20027;-67
2023/06/25 05:39:17;;;;;;;6.50;5.10;;;21.60;99.90;;;;;;6244632;23;20020;-68
2023/06/25 05:41:45;;;;;;;9.55;4.85;;;21.70;99.90;;;;;;6243458;23;20332;-67
2023/06/25 05:44:14;;;;;;;8.77;5.22;;;21.90;99.90;;;;;;6244454;23;20051;-66
2023/06/25 05:46:41;;;;;;;8.13;4.80;;;22.00;99.90;;;;;;6243370;23;20496;-66
2023/06/25 05:49:10;;;;;;;9.05;5.25;;;22.20;99.90;;;;;;6244452;23;20024;-66
2023/06/25 05:51:37;;;;;;;7.13;5.07;;;22.30;99.90;;;;;;6245640;23;20466;-66
2023/06/25 05:54:04;;;;;;;7.10;4.20;;;22.40;99.90;;;;;;6243578;23;20054;-66
2023/06/25 05:56:31;;;;;;;5.78;4.78;;;22.60;99.90;;;;;;6245970;23;20323;-66
2023/06/25 05:59:00;;;;;;;7.32;4.05;;;22.70;99.90;;;;;;6240111;23;20070;-66
2023/06/25 06:01:27;;;;;;;8.25;4.70;;;22.80;99.90;;;;;;6241531;23;20449;-66
2023/06/25 06:03:54;;;;;;;8.32;4.68;;;23.00;99.90;;;;;;6244720;23;20020;-68
2023/06/25 06:06:21;;;;;;;8.80;4.28;;;23.10;99.90;;;;;;6243507;23;20024;-65
2023/06/25 06:08:47;;;;;;;7.28;4.32;;;23.20;99.90;;;;;;6242234;23;20299;-66
2023/06/25 06:11:14;;;;;;;8.05;4.30;;;23.30;99.90;;;;;;6243356;23;20024;-67
2023/06/25 06:13:42;;;;;;;6.85;4.65;;;23.30;99.90;;;;;;6242701;23;20020;-67
2023/06/25 06:16:11;;;;;;;5.88;4.78;;;23.40;99.90;;;;;;6242818;23;20032;-68
2023/06/25 06:18:38;;;;;;;7.68;4.55;;;23.60;99.90;;;;;;6244209;23;20473;-68
2023/06/25 06:21:04;;;;;;;7.25;4.60;;;23.60;99.90;;;;;;6243169;23;20476;-66
2023/06/25 06:23:31;;;;;;;5.38;3.88;;;23.70;99.90;;;;;;6242575;23;20024;-67
2023/06/25 06:25:58;;;;;;;4.88;3.75;;;24.10;99.90;;;;;;6244988;23;20090;-67
2023/06/25 06:28:25;;;;;;;5.97;4.05;;;24.30;99.90;;;;;;6242861;23;20027;-67
2023/06/25 06:30:52;;;;;;;7.57;4.55;;;24.50;99.90;;;;;;6242465;23;20028;-67
2023/06/25 06:33:20;;;;;;;7.68;4.05;;;24.80;99.90;;;;;;6243515;23;20024;-67
2023/06/25 06:35:47;;;;;;;7.32;4.57;;;24.90;99.90;;;;;;6242907;23;20028;-66
2023/06/25 06:38:14;;;;;;;5.35;4.00;;;25.00;99.90;;;;;;6240972;23;20082;-67
2023/06/25 06:40:41;;;;;;;5.75;4.47;;;25.20;99.90;;;;;;6243932;23;20020;-67
2023/06/25 06:43:08;;;;;;;7.32;4.53;;;25.20;99.90;;;;;;6243936;23;20540;-68
2023/06/25 06:45:35;;;;;;;6.55;4.47;;;25.30;99.90;;;;;;6242822;23;20020;-67
2023/06/25 06:48:02;;;;;;;9.63;5.13;;;25.40;99.90;;;;;;6242370;23;20051;-68
2023/06/25 06:50:30;;;;;;;8.95;5.00;;;25.60;99.90;;;;;;6242235;23;20074;-66
2023/06/25 06:52:57;;;;;;;7.00;5.15;;;25.70;99.90;;;;;;6243163;23;20481;-66
2023/06/25 06:55:24;;;;;;;9.15;5.25;;;25.70;99.90;;;;;;6242824;23;20488;-68
2023/06/25 06:57:51;;;;;;;9.80;5.57;;;25.70;99.90;;;;;;6243598;23;20026;-68
2023/06/25 07:00:19;;;;;;;9.95;5.43;;;25.90;99.90;;;;;;6242670;23;20074;-67
2023/06/25 07:02:46;;;;;;;8.98;5.50;;;26.00;99.90;;;;;;6242843;23;20020;-67
2023/06/25 07:05:13;;;;;;;10.48;5.95;;;26.30;99.90;;;;;;6244126;23;20077;-66
2023/06/25 07:07:42;;;;;;;7.38;5.57;;;26.50;99.80;;;;;;6244466;23;20023;-68
2023/06/25 07:10:10;;;;;;;9.25;5.70;;;26.80;98.90;;;;;;6244549;23;20477;-65
2023/06/25 07:12:37;;;;;;;6.80;4.45;;;27.10;98.70;;;;;;6242199;23;20027;-67
2023/06/25 07:15:05;;;;;;;10.70;6.05;;;27.50;98.60;;;;;;6242649;23;20024;-65
2023/06/25 07:17:32;;;;;;;7.35;5.60;;;27.60;97.90;;;;;;6244183;23;20043;-66
2023/06/25 07:19:58;;;;;;;11.50;6.32;;;28.00;97.80;;;;;;6243812;23;20025;-67
2023/06/25 07:22:25;;;;;;;9.13;5.47;;;28.10;97.20;;;;;;6242690;23;20024;-66
2023/06/25 07:24:54;;;;;;;7.95;5.97;;;28.40;97.10;;;;;;6244301;23;20472;-66
2023/06/25 07:27:21;;;;;;;7.53;5.65;;;28.60;96.70;;;;;;6243366;23;20024;-68
2023/06/25 07:29:47;;;;;;;7.88;5.90;;;28.90;96.40;;;;;;6244740;22;20024;-66
2023/06/25 07:32:14;;;;;;;9.85;6.55;;;28.90;95.80;;;;;;6242089;23;20032;-67
2023/06/25 07:34:41;;;;;;;7.05;6.07;;;29.30;95.60;;;;;;6243211;23;20020;-67
2023/06/25 07:37:08;;;;;;;9.18;6.18;;;29.40;95.30;;;;;;6244471;23;20024;-67
2023/06/25 07:39:35;;;;;;;10.07;6.63;;;29.50;95.10;;;;;;6243927;23;20431;-67
2023/06/25 07:42:04;;;;;;;12.35;6.78;;;29.50;94.80;;;;;;6242509;23;20063;-68
2023/06/25 07:44:31;;;;;;;9.43;6.70;;;29.50;94.50;;;;;;6242668;23;20016;-67
2023/06/25 07:46:58;;;;;;;8.15;6.30;;;29.50;94.40;;;;;;6241961;23;20094;-68
2023/06/25 07:49:25;;;;;;;11.48;7.05;;;29.80;94.40;;;;;;6242339;23;20043;-67
2023/06/25 07:51:53;;;;;;;7.70;6.68;;;29.90;94.10;;;;;;6240697;23;20074;-66
2023/06/25 07:54:20;;;;;;;7.60;6.88;;;30.00;93.80;;;;;;6242866;23;20024;-66
2023/06/25 07:56:47;;;;;;;9.88;6.78;;;30.10;93.60;;;;;;6242285;23;20489;-66
2023/06/25 07:59:16;;;;;;;12.25;7.13;;;30.20;93.30;;;;;;6241349;23;20028;-66
2023/06/25 08:01:44;;;;;;;8.65;6.88;;;30.40;93.10;;;;;;6243935;23;20024;-67
2023/06/25 08:04:11;;;;;;;7.00;6.25;;;30.60;93.10;;;;;;6242159;23;20067;-66
2023/06/25 08:06:38;;;;;;;6.43;5.60;;;30.60;92.90;;;;;;6243972;23;20354;-67
2023/06/25 08:09:05;;;;;;;9.38;5.78;;;31.00;92.90;;;;;;6242702;23;20039;-67
2023/06/25 08:11:31;;;;;;;7.30;6.53;;;31.40;92.60;;;;;;6242309;23;20074;-67
2023/06/25 08:13:58;;;;;;;7.55;6.75;;;31.70;92.20;;;;;;6243475;23;20503;-67
2023/06/25 08:16:29;;;;;;;8.45;5.88;;;31.70;91.70;;;;;;6241519;23;20028;-67
2023/06/25 08:18:56;;;;;;;7.43;6.65;;;31.70;91.50;;;;;;6242118;23;20028;-67
2023/06/25 08:21:24;;;;;;;7.53;6.30;;;31.80;91.50;;;;;;6244138;22;20024;-67
2023/06/25 08:23:51;;;;;;;6.38;5.25;;;31.80;91.20;;;;;;6241246;23;20036;-67
2023/06/25 08:26:18;;;;;;;7.45;5.68;;;32.30;91.20;;;;;;6242252;23;20020;-67
2023/06/25 08:28:45;;;;;;;7.00;6.32;;;32.60;90.90;;;;;;6242301;23;20031;-67
2023/06/25 08:31:12;;;;;;;7.18;5.72;;;32.70;90.30;;;;;;6242580;23;20027;-67
2023/06/25 08:33:40;;;;;;;8.00;5.93;;;33.00;90.00;;;;;;6243121;23;20020;-67
2023/06/25 08:36:07;;;;;;;11.43;6.13;;;33.00;88.80;;;;;;6243096;23;20457;-67
2023/06/25 08:38:34;;;;;;;7.93;5.88;;;33.00;88.60;;;;;;6243825;23;20020;-67
2023/06/25 08:41:01;;;;;;;7.28;5.90;;;33.00;88.90;;;;;;6245352;23;20024;-67
2023/06/25 08:43:29;;;;;;;7.18;5.88;;;33.10;87.90;;;;;;6244462;23;20020;-66
2023/06/25 08:45:55;;;;;;;7.13;5.80;;;33.40;87.40;;;;;;6243965;23;20467;-67
2023/06/25 08:48:24;;;;;;;7.57;4.93;;;33.50;86.90;;;;;;6243550;23;20024;-66
2023/06/25 08:50:56;;;;;;;7.53;5.87;;;33.50;86.20;;;;;;6244623;23;20024;-68
2023/06/25 08:53:26;;;;;;;9.48;5.78;;;33.90;85.60;;;;;;6245610;23;20251;-68
2023/06/25 08:55:55;;;;;;;;;;;34.20;84.70;;;;;;6244292;23;20020;-67
2023/06/25 08:58:22;;;;;;;6.75;5.07;;;34.10;80.80;;;;;;6243044;23;19991;-68
2023/06/25 09:00:49;;;;;;;6.70;5.80;;;34.30;83.80;;;;;;6245583;23;20032;-68
2023/06/25 09:03:16;;;;;;;6.00;4.65;;;34.30;83.10;;;;;;6245257;23;20031;-68
2023/06/25 09:05:54;;;;;;;8.27;5.47;;;34.40;82.40;;;;;;6242972;23;20086;-68
2023/06/25 09:08:21;;;;;;;5.75;4.78;;;34.50;79.30;;;;;;6243859;23;20097;-68
2023/06/25 09:10:51;;;;;;;6.53;5.57;;;34.40;80.80;;;;;;6242835;23;20055;-67
2023/06/25 09:13:22;;;;;;;5.32;4.28;;;34.40;80.40;;;;;;6243640;23;20023;-68
2023/06/25 09:15:49;;;;;;;5.47;4.78;;;34.50;79.60;;;;;;6243109;23;20016;-68
2023/06/25 09:18:21;;;;;;;5.40;4.60;;;34.60;79.20;;;;;;6242834;23;20047;-68
2023/06/25 09:20:48;;;;;;;5.93;4.95;;;34.90;77.50;;;;;;6245196;23;20457;-68
2023/06/25 09:23:21;;;;;;;6.32;5.03;;;34.90;78.30;;;;;;6244986;23;20022;-68
2023/06/25 09:25:49;;;;;;;6.90;4.43;;;35.10;77.00;;;;;;6244785;23;20020;-67
2023/06/25 09:28:16;;;;;;;5.20;4.50;;;35.00;78.10;;;;;;6245227;23;20058;-68
2023/06/25 09:30:43;;;;;;;6.28;4.78;;;35.40;77.90;;;;;;6243496;23;20027;-68
2023/06/25 09:33:11;;;;;;;7.40;4.15;;;35.60;76.90;;;;;;6242454;23;20374;-68
2023/06/25 09:35:38;;;;;;;8.10;5.10;;;35.60;77.00;;;;;;6245359;23;20058;-68
2023/06/25 09:38:07;;;;;;;7.65;4.47;;;35.30;77.00;;;;;;6243156;23;20032;-67
2023/06/25 09:40:35;;;;;;;7.43;4.20;;;35.40;77.20;;;;;;6242732;23;20350;-68
2023/06/25 09:43:05;;;;;;;7.30;4.25;;;35.90;77.30;;;;;;6242758;23;20024;-68
2023/06/25 09:45:34;;;;;;;6.88;4.53;;;36.20;76.40;;;;;;6243794;23;20016;-68
2023/06/25 09:48:01;;;;;;;5.13;3.65;;;36.20;75.50;;;;;;6242509;23;20031;-67
2023/06/25 09:50:33;;;;;;;4.90;4.32;;;36.20;75.00;;;;;;6243589;23;20480;-68
2023/06/25 09:53:03;;;;;;;4.85;4.10;;;36.20;74.50;;;;;;6242358;23;20031;-67
2023/06/25 09:55:30;;;;;;;5.35;3.42;;;35.90;74.10;;;;;;6242880;23;20031;-67
2023/06/25 09:58:01;;;;;;;5.10;3.88;;;36.10;74.60;;;;;;6245146;23;20020;-67
2023/06/25 10:00:29;;;;;;;4.90;3.92;;;36.30;73.60;;;;;;6242449;23;20469;-68
2023/06/25 10:02:56;;;;;;;4.63;3.97;;;36.70;72.70;;;;;;6243294;23;20024;-66
2023/06/25 10:05:23;;;;;;;6.32;3.47;;;36.70;71.60;;;;;;6242497;23;20020;-67
2023/06/25 10:07:53;;;;;;;5.65;3.67;;;36.50;71.50;;;;;;6244422;23;20024;-67
2023/06/25 10:10:21;;;;;;;8.00;3.33;;;36.10;71.60;;;;;;6244706;23;20021;-67
2023/06/25 10:12:49;;;;;;;6.60;3.88;;;36.40;71.60;;;;;;6244577;23;20392;-67
2023/06/25 10:15:28;;;;;;;5.43;3.40;;;36.60;71.10;;;;;;6242046;23;20099;-68
2023/06/25 10:17:57;;;;;;;4.35;3.70;;;36.50;71.40;;;;;;6245073;23;20058;-68
2023/06/25 10:20:29;;;;;;;4.40;4.00;;;36.70;71.40;;;;;;6244467;23;20031;-68
2023/06/25 10:23:07;;;;;;;9.48;4.70;;;36.80;70.50;;;;;;6244155;23;20103;-67
2023/06/25 10:25:35;;;;;;;9.20;4.03;;;36.40;70.60;;;;;;6242808;23;20051;-67
2023/06/25 10:28:06;;;;;;;5.25;4.30;;;36.40;71.50;;;;;;6245200;23;20103;-67
2023/06/25 10:30:46;;;;;;;5.40;4.78;;;36.60;72.10;;;;;;6244022;23;20101;-67
2023/06/25 10:33:15;;;;;;;7.40;4.00;;;37.00;71.30;;;;;;6244434;23;20024;-68
2023/06/25 10:35:42;;;;;;;;;;;36.80;72.00;;;;;;6242845;23;20525;-67
2023/06/25 10:38:10;;;;;;;5.07;4.28;;;36.80;72.30;;;;;;6244386;23;19919;-68
2023/06/25 10:40:39;;;;;;;4.95;4.20;;;37.00;71.20;;;;;;6241339;23;20020;-68
2023/06/25 10:43:06;;;;;;;5.15;3.45;;;37.10;70.40;;;;;;6241530;23;20062;-68
2023/06/25 10:45:34;;;;;;;4.93;3.65;;;37.00;70.40;;;;;;6242470;23;20035;-67
2023/06/25 10:48:05;;;;;;;4.87;4.30;;;37.10;70.80;;;;;;6242730;23;20028;-67
2023/06/25 10:50:32;;;;;;;5.60;3.90;;;36.60;69.90;;;;;;6242697;23;20092;-67
2023/06/25 10:53:00;;;;;;;6.25;4.15;;;36.60;70.00;;;;;;6242444;23;20028;-68
2023/06/25 10:55:27;;;;;;;3.80;3.28;;;36.60;69.70;;;;;;6242662;23;20066;-67
2023/06/25 10:57:55;;;;;;;5.30;3.60;;;36.70;70.60;;;;;;6241899;23;20020;-68
2023/06/25 11:00:23;;;;;;;5.38;3.90;;;37.00;69.80;;;;;;6244899;23;20398;-68
2023/06/25 11:02:51;;;;;;;9.05;3.75;;;37.20;68.90;;;;;;6244441;23;20082;-68
2023/06/25 11:05:20;;;;;;;6.07;3.47;;;37.20;68.80;;;;;;6242260;23;20511;-68
2023/06/25 11:07:54;;;;;;;5.00;3.13;;;37.20;69.10;;;;;;6242796;23;20327;-68
2023/06/25 11:10:23;;;;;;;3.40;3.00;;;37.60;66.90;;;;;;6242719;23;20020;-68
2023/06/25 11:12:50;;;;;;;5.40;3.40;;;37.70;68.00;;;;;;6242330;23;20516;-69
2023/06/25 11:15:17;;;;;;;3.63;2.67;;;37.70;67.40;;;;;;6241719;23;20034;-68
2023/06/25 11:17:44;;;;;;;5.00;3.38;;;37.60;67.50;;;;;;6241813;23;20103;-68
2023/06/25 11:20:12;;;;;;;4.60;2.50;;;37.80;67.50;;;;;;6242359;23;20035;-68
2023/06/25 11:22:44;;;;;;;3.80;3.10;;;37.70;66.10;;;;;;6242696;23;20465;-68
2023/06/25 11:25:12;;;;;;;3.58;2.67;;;37.70;65.30;;;;;;6243056;23;20054;-68
2023/06/25 11:27:40;;;;;;;3.70;2.67;;;37.40;65.40;;;;;;6244730;23;20048;-68
2023/06/25 11:30:08;;;;;;;5.78;2.75;;;37.20;65.70;;;;;;6244249;23;20462;-69
2023/06/25 11:32:35;;;;;;;;;;;37.10;65.60;;;;;;6242703;23;20346;-70
2023/06/25 11:35:10;;;;;;;3.40;2.75;;;37.10;65.50;;;;;;6242110;23;19915;-69
2023/06/25 11:37:45;;;;;;;3.35;2.70;;;37.10;65.30;;;;;;6243840;23;20466;-69
2023/06/25 11:40:23;;;;;;;6.43;2.42;;;37.50;65.50;;;;;;6243381;22;20020;-70
2023/06/25 11:42:51;;;;;;;3.92;2.80;;;37.60;64.90;;;;;;6242310;23;20020;-69
2023/06/25 11:45:18;;;;;;;4.03;3.30;;;37.50;65.00;;;;;;6242362;23;20043;-68
2023/06/25 11:47:46;;;;;;;4.80;2.92;;;37.70;65.20;;;;;;6241199;23;20020;-69
2023/06/25 11:50:13;;;;;;;4.47;2.80;;;37.70;65.30;;;;;;6242314;23;20024;-68
2023/06/25 11:52:40;;;;;;;5.13;2.42;;;37.60;64.40;;;;;;6242838;23;20476;-69
2023/06/25 11:55:09;;;;;;;5.22;2.60;;;37.70;64.80;;;;;;6243846;22;20070;-69
2023/06/25 11:57:36;;;;;;;4.90;2.65;;;37.60;64.90;;;;;;6242108;23;20043;-69
2023/06/25 12:00:04;;;;;;;3.53;2.20;;;37.80;65.00;;;;;;6241477;23;20032;-67
2023/06/25 12:02:31;;;;;;;2.60;2.03;;;37.70;63.30;;;;;;6243617;23;20047;-68
2023/06/25 12:04:58;;;;;;;3.85;1.88;;;37.50;62.80;;;;;;6243744;23;20345;-68
2023/06/25 12:07:25;;;;;;;3.33;2.40;;;37.40;63.20;;;;;;6244013;23;20066;-68
2023/06/25 12:09:53;;;;;;;3.75;2.60;;;37.30;63.20;;;;;;6246289;23;20024;-68
2023/06/25 12:12:21;;;;;;;3.42;2.40;;;37.50;63.10;;;;;;6244916;23;20069;-68
2023/06/25 12:14:48;;;;;;;3.67;2.47;;;37.50;63.20;;;;;;6245053;23;20024;-68
2023/06/25 12:17:15;;;;;;;3.85;2.42;;;37.30;62.40;;;;;;6245664;23;20016;-68
2023/06/25 12:19:43;;;;;;;3.72;2.55;;;37.10;62.70;;;;;;6245848;23;20024;-68
2023/06/25 12:22:10;;;;;;;5.53;2.65;;;37.20;62.90;;;;;;6243613;23;20028;-69
2023/06/25 12:24:38;;;;;;;4.03;2.38;;;37.40;63.20;;;;;;6243880;23;20036;-70
2023/06/25 12:27:05;;;;;;;4.40;2.35;;;37.50;62.80;;;;;;6243938;23;20103;-69
2023/06/25 12:29:34;;;;;;;3.35;2.47;;;37.60;62.10;;;;;;6244689;23;20020;-68
2023/06/25 12:32:01;;;;;;;2.80;2.00;;;37.50;61.50;;;;;;6244242;23;20020;-68
2023/06/25 12:34:28;;;;;;;2.53;1.92;;;37.50;61.20;;;;;;6245637;23;20039;-69
2023/06/25 12:36:55;;;;;;;3.25;2.17;;;37.50;61.50;;;;;;6243342;23;20028;-68
2023/06/25 12:39:22;;;;;;;3.22;2.22;;;37.60;61.40;;;;;;6243577;23;20028;-69
2023/06/25 12:41:49;;;;;;;3.80;2.55;;;37.80;61.00;;;;;;6245740;23;20031;-68
2023/06/25 12:44:16;;;;;;;4.70;2.60;;;38.00;61.00;;;;;;6242978;23;20031;-68
2023/06/25 12:46:44;;;;;;;8.90;3.10;;;37.80;61.00;;;;;;6243805;23;20465;-69